sensor_id;sensor_type;location;lat;lon;timestamp;pressure;altitude;pressure_sealevel;temperature;humidity
77240;BME280;66258;53.170;-2.240;2023-05-28T00:00:35;101211.53;;;21.45;87.83
77240;BME280;66258;53.170;-2.240;2023-05-28T00:03:02;101208.41;;;21.28;89.11
77240;BME280;66258;53.170;-2.240;2023-05-28T00:05:29;101199.09;;;21.09;90.39
77240;BME280;66258;53.170;-2.240;2023-05-28T00:07:57;101203.53;;;21.04;91.91
77240;BME280;66258;53.170;-2.240;2023-05-28T00:10:24;101209.06;;;21.04;92.13
77240;BME280;66258;53.170;-2.240;2023-05-28T00:12:51;101202.72;;;20.83;93.27
77240;BME280;66258;53.170;-2.240;2023-05-28T00:15:17;101199.56;;;20.53;95.12
77240;BME280;66258;53.170;-2.240;2023-05-28T00:17:44;101203.59;;;20.71;95.41
77240;BME280;66258;53.170;-2.240;2023-05-28T00:20:11;101198.47;;;20.81;94.99
77240;BME280;66258;53.170;-2.240;2023-05-28T00:22:38;101197.25;;;20.77;95.59
77240;BME280;66258;53.170;-2.240;2023-05-28T00:25:08;101195.94;;;20.86;95.67
77240;BME280;66258;53.170;-2.240;2023-05-28T00:27:35;101184.94;;;20.86;95.51
77240;BME280;66258;53.170;-2.240;2023-05-28T00:30:02;101186.63;;;20.93;94.81
77240;BME280;66258;53.170;-2.240;2023-05-28T00:32:29;101195.09;;;20.92;94.89
77240;BME280;66258;53.170;-2.240;2023-05-28T00:34:56;101186.63;;;20.87;95.42
77240;BME280;66258;53.170;-2.240;2023-05-28T00:37:22;101190.44;;;20.79;96.16
77240;BME280;66258;53.170;-2.240;2023-05-28T00:39:49;101186.44;;;20.75;96.39
77240;BME280;66258;53.170;-2.240;2023-05-28T00:42:17;101189.81;;;20.84;96.82
77240;BME280;66258;53.170;-2.240;2023-05-28T00:44:44;101192.34;;;20.79;96.94
77240;BME280;66258;53.170;-2.240;2023-05-28T00:47:11;101188.94;;;21.03;95.61
77240;BME280;66258;53.170;-2.240;2023-05-28T00:49:38;101187.66;;;21.06;95.35
77240;BME280;66258;53.170;-2.240;2023-05-28T00:52:07;101190.88;;;20.96;95.68
77240;BME280;66258;53.170;-2.240;2023-05-28T00:54:35;101181.97;;;20.87;96.67
77240;BME280;66258;53.170;-2.240;2023-05-28T00:57:02;101182.81;;;20.88;96.06
77240;BME280;66258;53.170;-2.240;2023-05-28T00:59:30;101187.94;;;20.78;96.36
77240;BME280;66258;53.170;-2.240;2023-05-28T01:01:58;101175.22;;;20.70;96.88
77240;BME280;66258;53.170;-2.240;2023-05-28T01:04:25;101175.41;;;20.62;97.19
77240;BME280;66258;53.170;-2.240;2023-05-28T01:06:52;101176.09;;;20.57;97.52
77240;BME280;66258;53.170;-2.240;2023-05-28T01:09:18;101181.78;;;20.63;97.96
77240;BME280;66258;53.170;-2.240;2023-05-28T01:11:46;101177.75;;;20.58;97.40
77240;BME280;66258;53.170;-2.240;2023-05-28T01:14:15;101175.22;;;20.50;97.86
77240;BME280;66258;53.170;-2.240;2023-05-28T01:16:43;101177.56;;;20.53;98.10
77240;BME280;66258;53.170;-2.240;2023-05-28T01:19:11;101181.13;;;20.47;98.27
77240;BME280;66258;53.170;-2.240;2023-05-28T01:21:40;101181.13;;;20.47;98.61
77240;BME280;66258;53.170;-2.240;2023-05-28T01:24:11;101182.38;;;20.38;98.71
77240;BME280;66258;53.170;-2.240;2023-05-28T01:26:39;101178.59;;;20.39;99.27
77240;BME280;66258;53.170;-2.240;2023-05-28T01:29:13;101181.97;;;20.35;99.20
77240;BME280;66258;53.170;-2.240;2023-05-28T01:31:41;101179.41;;;20.33;100.00
77240;BME280;66258;53.170;-2.240;2023-05-28T01:34:09;101181.75;;;20.43;99.58
77240;BME280;66258;53.170;-2.240;2023-05-28T01:36:41;101185.53;;;20.29;99.44
77240;BME280;66258;53.170;-2.240;2023-05-28T01:39:11;101188.03;;;20.17;99.71
77240;BME280;66258;53.170;-2.240;2023-05-28T01:41:41;101192.06;;;20.08;100.00
77240;BME280;66258;53.170;-2.240;2023-05-28T01:44:08;101200.09;;;20.09;100.00
77240;BME280;66258;53.170;-2.240;2023-05-28T01:46:35;101196.50;;;20.09;100.00
77240;BME280;66258;53.170;-2.240;2023-05-28T01:49:01;101198.41;;;20.08;100.00
77240;BME280;66258;53.170;-2.240;2023-05-28T01:51:28;101197.13;;;20.04;100.00
77240;BME280;66258;53.170;-2.240;2023-05-28T01:53:55;101193.94;;;19.94;100.00
77240;BME280;66258;53.170;-2.240;2023-05-28T01:56:23;101193.25;;;19.85;100.00
77240;BME280;66258;53.170;-2.240;2023-05-28T01:58:50;101185.44;;;19.96;100.00
77240;BME280;66258;53.170;-2.240;2023-05-28T02:01:22;101192.88;;;20.02;100.00
77240;BME280;66258;53.170;-2.240;2023-05-28T02:03:51;101195.84;;;19.94;100.00
77240;BME280;66258;53.170;-2.240;2023-05-28T02:06:18;101201.75;;;19.90;100.00
77240;BME280;66258;53.170;-2.240;2023-05-28T02:08:45;101189.91;;;19.90;100.00
77240;BME280;66258;53.170;-2.240;2023-05-28T02:11:11;101191.59;;;19.91;100.00
77240;BME280;66258;53.170;-2.240;2023-05-28T02:13:40;101193.31;;;20.05;100.00
77240;BME280;66258;53.170;-2.240;2023-05-28T02:16:07;101200.88;;;19.97;100.00
77240;BME280;66258;53.170;-2.240;2023-05-28T02:18:35;101198.97;;;19.97;100.00
77240;BME280;66258;53.170;-2.240;2023-05-28T02:21:02;101197.09;;;19.98;100.00
77240;BME280;66258;53.170;-2.240;2023-05-28T02:23:29;101196.28;;;20.04;100.00
77240;BME280;66258;53.170;-2.240;2023-05-28T02:25:56;101200.88;;;19.97;100.00
77240;BME280;66258;53.170;-2.240;2023-05-28T02:28:23;101200.06;;;20.03;100.00
77240;BME280;66258;53.170;-2.240;2023-05-28T02:30:51;101200.28;;;19.95;100.00
77240;BME280;66258;53.170;-2.240;2023-05-28T02:33:18;101202.59;;;19.98;100.00
77240;BME280;66258;53.170;-2.240;2023-05-28T02:35:44;101200.47;;;20.00;100.00
77240;BME280;66258;53.170;-2.240;2023-05-28T02:38:11;101199.63;;;19.93;100.00
77240;BME280;66258;53.170;-2.240;2023-05-28T02:40:37;101194.94;;;19.86;100.00
77240;BME280;66258;53.170;-2.240;2023-05-28T02:43:04;101200.00;;;19.83;100.00
77240;BME280;66258;53.170;-2.240;2023-05-28T02:45:31;101207.81;;;19.79;100.00
77240;BME280;66258;53.170;-2.240;2023-05-28T02:47:59;101204.00;;;19.80;100.00
77240;BME280;66258;53.170;-2.240;2023-05-28T02:50:26;101208.41;;;19.75;100.00
77240;BME280;66258;53.170;-2.240;2023-05-28T02:52:52;101205.47;;;19.76;100.00
77240;BME280;66258;53.170;-2.240;2023-05-28T02:55:19;101201.03;;;19.75;100.00
77240;BME280;66258;53.170;-2.240;2023-05-28T02:57:46;101208.28;;;19.89;100.00
77240;BME280;66258;53.170;-2.240;2023-05-28T03:00:13;101200.88;;;19.90;100.00
77240;BME280;66258;53.170;-2.240;2023-05-28T03:02:40;101202.59;;;19.98;100.00
77240;BME280;66258;53.170;-2.240;2023-05-28T03:05:09;101195.63;;;20.02;100.00
77240;BME280;66258;53.170;-2.240;2023-05-28T03:07:35;101197.97;;;20.05;100.00
77240;BME280;66258;53.170;-2.240;2023-05-28T03:10:02;101205.97;;;20.00;100.00
77240;BME280;66258;53.170;-2.240;2023-05-28T03:12:29;101207.19;;;19.84;100.00
77240;BME280;66258;53.170;-2.240;2023-05-28T03:14:56;101209.72;;;19.79;100.00
77240;BME280;66258;53.170;-2.240;2023-05-28T03:17:23;101209.34;;;19.88;100.00
77240;BME280;66258;53.170;-2.240;2023-05-28T03:19:50;101212.50;;;19.85;100.00
77240;BME280;66258;53.170;-2.240;2023-05-28T03:22:19;101210.19;;;19.89;100.00
77240;BME280;66258;53.170;-2.240;2023-05-28T03:24:45;101213.09;;;19.81;100.00
77240;BME280;66258;53.170;-2.240;2023-05-28T03:27:12;101215.59;;;19.76;100.00
77240;BME280;66258;53.170;-2.240;2023-05-28T03:29:39;101208.41;;;19.68;100.00
77240;BME280;66258;53.170;-2.240;2023-05-28T03:32:06;101211.84;;;19.83;100.00
77240;BME280;66258;53.170;-2.240;2023-05-28T03:34:32;101207.00;;;19.85;100.00
77240;BME280;66258;53.170;-2.240;2023-05-28T03:36:59;101213.78;;;19.89;100.00
77240;BME280;66258;53.170;-2.240;2023-05-28T03:39:28;101207.19;;;19.84;100.00
77240;BME280;66258;53.170;-2.240;2023-05-28T03:41:55;101205.91;;;19.80;100.00
77240;BME280;66258;53.170;-2.240;2023-05-28T03:44:22;101205.91;;;19.73;100.00
77240;BME280;66258;53.170;-2.240;2023-05-28T03:46:49;101207.38;;;19.69;100.00
77240;BME280;66258;53.170;-2.240;2023-05-28T03:49:18;101213.47;;;19.65;100.00
77240;BME280;66258;53.170;-2.240;2023-05-28T03:51:45;101207.28;;;19.56;100.00
77240;BME280;66258;53.170;-2.240;2023-05-28T03:54:12;101206.69;;;19.61;100.00
77240;BME280;66258;53.170;-2.240;2023-05-28T03:56:41;101204.41;;;19.71;100.00
77240;BME280;66258;53.170;-2.240;2023-05-28T03:59:08;101202.69;;;19.63;100.00
77240;BME280;66258;53.170;-2.240;2023-05-28T04:01:34;101204.50;;;19.49;100.00
77240;BME280;66258;53.170;-2.240;2023-05-28T04:04:01;101210.38;;;19.46;100.00
77240;BME280;66258;53.170;-2.240;2023-05-28T04:06:29;101197.59;;;19.60;100.00
77240;BME280;66258;53.170;-2.240;2023-05-28T04:08:56;101209.69;;;19.72;100.00
77240;BME280;66258;53.170;-2.240;2023-05-28T04:11:22;101214.09;;;19.67;100.00
77240;BME280;66258;53.170;-2.240;2023-05-28T04:13:51;101218.31;;;19.63;100.00
77240;BME280;66258;53.170;-2.240;2023-05-28T04:16:17;101218.06;;;19.51;100.00
77240;BME280;66258;53.170;-2.240;2023-05-28T04:18:44;101207.56;;;19.68;100.00
77240;BME280;66258;53.170;-2.240;2023-05-28T04:21:12;101209.88;;;19.64;100.00
77240;BME280;66258;53.170;-2.240;2023-05-28T04:23:39;101203.56;;;19.77;100.00
77240;BME280;66258;53.170;-2.240;2023-05-28T04:26:06;101218.50;;;19.61;100.00
77240;BME280;66258;53.170;-2.240;2023-05-28T04:28:32;101216.22;;;19.65;100.00
77240;BME280;66258;53.170;-2.240;2023-05-28T04:31:00;101215.00;;;19.80;100.00
77240;BME280;66258;53.170;-2.240;2023-05-28T04:33:27;101212.97;;;20.02;100.00
77240;BME280;66258;53.170;-2.240;2023-05-28T04:35:54;101217.66;;;20.08;100.00
77240;BME280;66258;53.170;-2.240;2023-05-28T04:38:21;101226.75;;;20.15;100.00
77240;BME280;66258;53.170;-2.240;2023-05-28T04:40:48;101223.19;;;20.28;100.00
77240;BME280;66258;53.170;-2.240;2023-05-28T04:43:15;101219.16;;;20.24;100.00
77240;BME280;66258;53.170;-2.240;2023-05-28T04:45:42;101223.78;;;20.17;100.00
77240;BME280;66258;53.170;-2.240;2023-05-28T04:48:10;101230.16;;;20.24;100.00
77240;BME280;66258;53.170;-2.240;2023-05-28T04:50:37;101229.91;;;20.12;100.00
77240;BME280;66258;53.170;-2.240;2023-05-28T04:53:04;101233.09;;;20.16;100.00
77240;BME280;66258;53.170;-2.240;2023-05-28T04:55:31;101234.78;;;20.10;100.00
77240;BME280;66258;53.170;-2.240;2023-05-28T04:57:58;101241.38;;;20.29;100.00
77240;BME280;66258;53.170;-2.240;2023-05-28T05:00:25;101242.69;;;20.40;100.00
77240;BME280;66258;53.170;-2.240;2023-05-28T05:02:51;101240.56;;;20.42;100.00
77240;BME280;66258;53.170;-2.240;2023-05-28T05:05:20;101245.03;;;20.49;100.00
77240;BME280;66258;53.170;-2.240;2023-05-28T05:07:46;101238.72;;;20.55;100.00
77240;BME280;66258;53.170;-2.240;2023-05-28T05:10:13;101234.47;;;20.59;100.00
77240;BME280;66258;53.170;-2.240;2023-05-28T05:12:40;101242.09;;;20.57;100.00
77240;BME280;66258;53.170;-2.240;2023-05-28T05:15:08;101238.50;;;20.64;100.00
77240;BME280;66258;53.170;-2.240;2023-05-28T05:17:34;101235.13;;;20.88;100.00
77240;BME280;66258;53.170;-2.240;2023-05-28T05:20:03;101242.53;;;20.94;100.00
77240;BME280;66258;53.170;-2.240;2023-05-28T05:22:31;101248.88;;;20.88;100.00
77240;BME280;66258;53.170;-2.240;2023-05-28T05:24:58;101242.75;;;20.92;100.00
77240;BME280;66258;53.170;-2.240;2023-05-28T05:27:24;101241.69;;;20.87;100.00
77240;BME280;66258;53.170;-2.240;2023-05-28T05:29:51;101248.47;;;20.78;100.00
77240;BME280;66258;53.170;-2.240;2023-05-28T05:32:18;101246.31;;;20.67;100.00
77240;BME280;66258;53.170;-2.240;2023-05-28T05:34:45;101246.75;;;20.50;100.00
77240;BME280;66258;53.170;-2.240;2023-05-28T05:37:11;101245.69;;;20.51;100.00
77240;BME280;66258;53.170;-2.240;2023-05-28T05:39:39;101237.00;;;20.61;100.00
77240;BME280;66258;53.170;-2.240;2023-05-28T05:42:06;101247.81;;;20.76;100.00
77240;BME280;66258;53.170;-2.240;2023-05-28T05:44:33;101237.88;;;20.75;100.00
77240;BME280;66258;53.170;-2.240;2023-05-28T05:47:00;101237.47;;;20.78;100.00
77240;BME280;66258;53.170;-2.240;2023-05-28T05:49:27;101240.19;;;20.84;100.00
77240;BME280;66258;53.170;-2.240;2023-05-28T05:51:53;101239.56;;;20.89;100.00
77240;BME280;66258;53.170;-2.240;2023-05-28T05:54:20;101244.22;;;20.95;100.00
77240;BME280;66258;53.170;-2.240;2023-05-28T05:56:48;101240.59;;;21.01;100.00
77240;BME280;66258;53.170;-2.240;2023-05-28T05:59:15;101239.53;;;21.02;100.00
77240;BME280;66258;53.170;-2.240;2023-05-28T06:01:42;101243.16;;;21.29;100.00
77240;BME280;66258;53.170;-2.240;2023-05-28T06:04:08;101248.38;;;21.57;100.00
77240;BME280;66258;53.170;-2.240;2023-05-28T06:06:35;101252.56;;;21.73;100.00
77240;BME280;66258;53.170;-2.240;2023-05-28T06:09:02;101244.97;;;22.19;100.00
77240;BME280;66258;53.170;-2.240;2023-05-28T06:11:29;101249.81;;;22.87;100.00
77240;BME280;66258;53.170;-2.240;2023-05-28T06:13:57;101253.38;;;23.19;100.00
77240;BME280;66258;53.170;-2.240;2023-05-28T06:16:24;101255.75;;;23.77;100.00
77240;BME280;66258;53.170;-2.240;2023-05-28T06:18:50;101253.63;;;24.27;97.87
77240;BME280;66258;53.170;-2.240;2023-05-28T06:21:17;101254.38;;;24.76;92.53
77240;BME280;66258;53.170;-2.240;2023-05-28T06:23:44;101265.63;;;24.92;86.44
77240;BME280;66258;53.170;-2.240;2023-05-28T06:26:10;101271.94;;;24.70;86.16
77240;BME280;66258;53.170;-2.240;2023-05-28T06:28:37;101268.63;;;24.91;89.08
77240;BME280;66258;53.170;-2.240;2023-05-28T06:31:05;101274.09;;;25.21;82.77
77240;BME280;66258;53.170;-2.240;2023-05-28T06:33:32;101270.66;;;24.84;82.88
77240;BME280;66258;53.170;-2.240;2023-05-28T06:35:58;101273.88;;;24.81;84.30
77240;BME280;66258;53.170;-2.240;2023-05-28T06:38:25;101281.28;;;24.98;85.27
77240;BME280;66258;53.170;-2.240;2023-05-28T06:40:52;101275.78;;;24.69;84.74
77240;BME280;66258;53.170;-2.240;2023-05-28T06:43:18;101268.25;;;24.46;85.26
77240;BME280;66258;53.170;-2.240;2023-05-28T06:45:45;101270.59;;;24.12;86.22
77240;BME280;66258;53.170;-2.240;2023-05-28T06:48:13;101276.63;;;23.91;86.94
77240;BME280;66258;53.170;-2.240;2023-05-28T06:50:40;101267.00;;;23.93;89.59
77240;BME280;66258;53.170;-2.240;2023-05-28T06:53:06;101288.84;;;24.02;87.79
77240;BME280;66258;53.170;-2.240;2023-05-28T06:55:33;101275.78;;;23.54;89.57
77240;BME280;66258;53.170;-2.240;2023-05-28T06:58:00;101270.81;;;23.38;91.81
77240;BME280;66258;53.170;-2.240;2023-05-28T07:00:27;101276.03;;;23.03;94.13
77240;BME280;66258;53.170;-2.240;2023-05-28T07:02:53;101277.97;;;23.02;94.83
77240;BME280;66258;53.170;-2.240;2023-05-28T07:05:22;101285.22;;;23.21;93.99
77240;BME280;66258;53.170;-2.240;2023-05-28T07:07:49;101276.44;;;23.06;94.23
77240;BME280;66258;53.170;-2.240;2023-05-28T07:10:16;101278.09;;;23.07;95.33
77240;BME280;66258;53.170;-2.240;2023-05-28T07:12:42;101283.00;;;23.30;95.73
77240;BME280;66258;53.170;-2.240;2023-05-28T07:15:09;101283.56;;;23.14;95.33
77240;BME280;66258;53.170;-2.240;2023-05-28T07:17:36;101283.03;;;23.05;95.49
77240;BME280;66258;53.170;-2.240;2023-05-28T07:20:03;101290.41;;;23.11;96.10
77240;BME280;66258;53.170;-2.240;2023-05-28T07:22:32;101295.50;;;23.08;96.89
77240;BME280;66258;53.170;-2.240;2023-05-28T07:24:58;101296.09;;;23.16;97.07
77240;BME280;66258;53.170;-2.240;2023-05-28T07:27:25;101293.59;;;23.08;96.56
77240;BME280;66258;53.170;-2.240;2023-05-28T07:29:52;101301.78;;;22.96;97.85
77240;BME280;66258;53.170;-2.240;2023-05-28T07:32:18;101297.59;;;23.12;98.00
77240;BME280;66258;53.170;-2.240;2023-05-28T07:34:45;101297.50;;;23.25;97.36
77240;BME280;66258;53.170;-2.240;2023-05-28T07:37:12;101295.41;;;23.46;97.20
77240;BME280;66258;53.170;-2.240;2023-05-28T07:39:40;101301.59;;;23.41;96.12
77240;BME280;66258;53.170;-2.240;2023-05-28T07:42:07;101298.97;;;23.03;98.52
77240;BME280;66258;53.170;-2.240;2023-05-28T07:44:33;101317.09;;;23.67;99.30
77240;BME280;66258;53.170;-2.240;2023-05-28T07:47:00;101313.09;;;24.36;97.15
77240;BME280;66258;53.170;-2.240;2023-05-28T07:49:27;101314.44;;;24.75;91.93
77240;BME280;66258;53.170;-2.240;2023-05-28T07:51:54;101321.56;;;24.83;90.43
77240;BME280;66258;53.170;-2.240;2023-05-28T07:54:20;101318.63;;;24.96;90.71
77240;BME280;66258;53.170;-2.240;2023-05-28T07:56:49;101321.38;;;24.96;88.76
77240;BME280;66258;53.170;-2.240;2023-05-28T07:59:15;101326.34;;;24.64;87.86
77240;BME280;66258;53.170;-2.240;2023-05-28T08:01:42;101324.53;;;24.40;89.84
77240;BME280;66258;53.170;-2.240;2023-05-28T08:04:09;101320.16;;;24.50;89.86
77240;BME280;66258;53.170;-2.240;2023-05-28T08:06:35;101318.97;;;24.28;91.14
77240;BME280;66258;53.170;-2.240;2023-05-28T08:09:02;101323.09;;;24.37;91.12
77240;BME280;66258;53.170;-2.240;2023-05-28T08:11:29;101323.75;;;24.51;90.50
77240;BME280;66258;53.170;-2.240;2023-05-28T08:13:57;101327.84;;;24.48;90.06
77240;BME280;66258;53.170;-2.240;2023-05-28T08:16:24;101330.25;;;24.26;92.10
77240;BME280;66258;53.170;-2.240;2023-05-28T08:18:51;101325.81;;;24.25;93.06
77240;BME280;66258;53.170;-2.240;2023-05-28T08:21:18;101333.47;;;24.23;92.58
77240;BME280;66258;53.170;-2.240;2023-05-28T08:23:44;101343.41;;;24.31;91.06
77240;BME280;66258;53.170;-2.240;2023-05-28T08:26:11;101333.59;;;24.47;92.89
77240;BME280;66258;53.170;-2.240;2023-05-28T08:28:38;101333.63;;;24.88;93.68
77240;BME280;66258;53.170;-2.240;2023-05-28T08:31:06;101337.34;;;25.59;90.82
77240;BME280;66258;53.170;-2.240;2023-05-28T08:33:33;101335.34;;;25.54;82.81
77240;BME280;66258;53.170;-2.240;2023-05-28T08:36:00;101332.53;;;25.43;84.62
77240;BME280;66258;53.170;-2.240;2023-05-28T08:38:28;101340.13;;;25.12;82.66
77240;BME280;66258;53.170;-2.240;2023-05-28T08:40:55;101334.38;;;24.95;85.47
77240;BME280;66258;53.170;-2.240;2023-05-28T08:43:22;101338.53;;;25.05;83.05
77240;BME280;66258;53.170;-2.240;2023-05-28T08:45:50;101342.75;;;25.07;82.73
77240;BME280;66258;53.170;-2.240;2023-05-28T08:48:20;101338.06;;;25.19;80.43
77240;BME280;66258;53.170;-2.240;2023-05-28T08:50:48;101336.13;;;25.08;82.98
77240;BME280;66258;53.170;-2.240;2023-05-28T08:53:20;101338.53;;;25.05;81.62
77240;BME280;66258;53.170;-2.240;2023-05-28T08:55:47;101332.59;;;25.01;82.35
77240;BME280;66258;53.170;-2.240;2023-05-28T08:58:14;101326.13;;;24.77;82.45
77240;BME280;66258;53.170;-2.240;2023-05-28T09:00:42;101323.34;;;25.07;84.25
77240;BME280;66258;53.170;-2.240;2023-05-28T09:03:09;101324.94;;;25.38;82.42
77240;BME280;66258;53.170;-2.240;2023-05-28T09:05:38;101332.16;;;25.39;81.76
77240;BME280;66258;53.170;-2.240;2023-05-28T09:08:06;101329.94;;;25.71;82.73
77240;BME280;66258;53.170;-2.240;2023-05-28T09:10:33;101341.16;;;26.28;75.33
77240;BME280;66258;53.170;-2.240;2023-05-28T09:13:00;101342.84;;;26.86;75.33
77240;BME280;66258;53.170;-2.240;2023-05-28T09:15:28;101348.66;;;27.29;74.52
77240;BME280;66258;53.170;-2.240;2023-05-28T09:17:55;101353.06;;;27.59;68.66
77240;BME280;66258;53.170;-2.240;2023-05-28T09:20:21;101346.13;;;27.45;65.94
77240;BME280;66258;53.170;-2.240;2023-05-28T09:22:58;101351.34;;;27.08;62.99
77240;BME280;66258;53.170;-2.240;2023-05-28T09:25:25;101338.09;;;26.41;65.41
77240;BME280;66258;53.170;-2.240;2023-05-28T09:27:53;101337.59;;;26.56;67.50
77240;BME280;66258;53.170;-2.240;2023-05-28T09:30:20;101337.78;;;26.26;69.46
77240;BME280;66258;53.170;-2.240;2023-05-28T09:32:55;101328.28;;;25.98;68.87
77240;BME280;66258;53.170;-2.240;2023-05-28T09:35:25;101333.38;;;25.78;71.85
77240;BME280;66258;53.170;-2.240;2023-05-28T09:38:00;101325.03;;;26.01;73.83
77240;BME280;66258;53.170;-2.240;2023-05-28T09:40:27;101331.94;;;26.51;65.76
77240;BME280;66258;53.170;-2.240;2023-05-28T09:42:54;101316.22;;;26.05;68.71
77240;BME280;66258;53.170;-2.240;2023-05-28T09:45:22;101330.19;;;26.21;72.43
77240;BME280;66258;53.170;-2.240;2023-05-28T09:47:49;101335.13;;;26.31;68.86
77240;BME280;66258;53.170;-2.240;2023-05-28T09:50:16;101337.78;;;26.38;69.31
77240;BME280;66258;53.170;-2.240;2023-05-28T09:52:44;101335.53;;;26.51;64.85
77240;BME280;66258;53.170;-2.240;2023-05-28T09:55:14;101337.38;;;26.46;63.34
77240;BME280;66258;53.170;-2.240;2023-05-28T09:57:45;101330.44;;;26.31;59.55
77240;BME280;66258;53.170;-2.240;2023-05-28T10:00:15;101327.56;;;26.15;61.09
77240;BME280;66258;53.170;-2.240;2023-05-28T10:02:53;101323.78;;;26.32;63.83
77240;BME280;66258;53.170;-2.240;2023-05-28T10:05:23;101335.03;;;26.14;63.58
77240;BME280;66258;53.170;-2.240;2023-05-28T10:07:53;101337.06;;;26.19;63.06
77240;BME280;66258;53.170;-2.240;2023-05-28T10:10:23;101345.16;;;26.32;64.74
77240;BME280;66258;53.170;-2.240;2023-05-28T10:12:50;101345.09;;;26.44;61.87
77240;BME280;66258;53.170;-2.240;2023-05-28T10:15:17;101342.38;;;26.60;61.20
77240;BME280;66258;53.170;-2.240;2023-05-28T10:17:44;101346.84;;;26.61;60.08
77240;BME280;66258;53.170;-2.240;2023-05-28T10:20:12;101339.94;;;26.92;59.63
77240;BME280;66258;53.170;-2.240;2023-05-28T10:22:39;101334.00;;;27.17;58.84
77240;BME280;66258;53.170;-2.240;2023-05-28T10:25:07;101342.00;;;26.97;57.99
77240;BME280;66258;53.170;-2.240;2023-05-28T10:27:37;101337.34;;;27.02;59.60
77240;BME280;66258;53.170;-2.240;2023-05-28T10:30:10;101338.72;;;27.33;61.84
77240;BME280;66258;53.170;-2.240;2023-05-28T10:32:38;101338.19;;;28.09;55.74
77240;BME280;66258;53.170;-2.240;2023-05-28T10:35:09;101344.53;;;28.48;53.42
77240;BME280;66258;53.170;-2.240;2023-05-28T10:37:36;101335.63;;;28.46;56.61
77240;BME280;66258;53.170;-2.240;2023-05-28T10:40:07;101332.69;;;28.57;54.70
77240;BME280;66258;53.170;-2.240;2023-05-28T10:42:40;101335.19;;;28.81;55.16
77240;BME280;66258;53.170;-2.240;2023-05-28T10:45:09;101339.59;;;29.35;51.03
77240;BME280;66258;53.170;-2.240;2023-05-28T10:47:38;101333.03;;;29.52;46.98
77240;BME280;66258;53.170;-2.240;2023-05-28T10:50:13;101338.69;;;30.04;49.70
77240;BME280;66258;53.170;-2.240;2023-05-28T10:53:02;101339.22;;;30.63;44.51
77240;BME280;66258;53.170;-2.240;2023-05-28T10:55:46;101342.75;;;30.38;45.97
77240;BME280;66258;53.170;-2.240;2023-05-28T10:58:22;101333.50;;;30.28;45.14
77240;BME280;66258;53.170;-2.240;2023-05-28T11:00:49;101328.91;;;30.01;45.24
77240;BME280;66258;53.170;-2.240;2023-05-28T11:03:16;101316.56;;;29.92;48.03
77240;BME280;66258;53.170;-2.240;2023-05-28T11:05:43;101326.69;;;29.61;46.67
77240;BME280;66258;53.170;-2.240;2023-05-28T11:08:10;101326.22;;;29.37;48.22
77240;BME280;66258;53.170;-2.240;2023-05-28T11:10:37;101319.69;;;29.22;47.84
77240;BME280;66258;53.170;-2.240;2023-05-28T11:13:04;101317.03;;;28.78;49.34
77240;BME280;66258;53.170;-2.240;2023-05-28T11:15:32;101321.50;;;28.30;49.41
77240;BME280;66258;53.170;-2.240;2023-05-28T11:17:58;101326.78;;;27.88;50.58
77240;BME280;66258;53.170;-2.240;2023-05-28T11:20:26;101327.31;;;28.07;50.84
77240;BME280;66258;53.170;-2.240;2023-05-28T11:22:53;101331.28;;;28.33;48.25
77240;BME280;66258;53.170;-2.240;2023-05-28T11:25:21;101332.75;;;28.62;48.31
77240;BME280;66258;53.170;-2.240;2023-05-28T11:27:49;101339.28;;;28.51;47.00
77240;BME280;66258;53.170;-2.240;2023-05-28T11:30:16;101331.00;;;28.56;47.25
77240;BME280;66258;53.170;-2.240;2023-05-28T11:32:47;101331.00;;;28.56;52.56
77240;BME280;66258;53.170;-2.240;2023-05-28T11:35:15;101345.50;;;29.12;50.72
77240;BME280;66258;53.170;-2.240;2023-05-28T11:37:43;101348.53;;;29.37;47.20
77240;BME280;66258;53.170;-2.240;2023-05-28T11:40:11;101345.88;;;29.48;47.71
77240;BME280;66258;53.170;-2.240;2023-05-28T11:42:40;101347.38;;;29.33;46.11
77240;BME280;66258;53.170;-2.240;2023-05-28T11:45:08;101343.91;;;29.48;43.74
77240;BME280;66258;53.170;-2.240;2023-05-28T11:47:35;101342.06;;;29.64;43.90
77240;BME280;66258;53.170;-2.240;2023-05-28T11:50:08;101337.94;;;30.24;46.65
77240;BME280;66258;53.170;-2.240;2023-05-28T11:52:35;101337.06;;;31.06;48.15
77240;BME280;66258;53.170;-2.240;2023-05-28T11:55:03;101346.84;;;31.80;43.03
77240;BME280;66258;53.170;-2.240;2023-05-28T11:57:30;101345.13;;;31.99;40.96
77240;BME280;66258;53.170;-2.240;2023-05-28T11:59:59;101345.06;;;32.09;41.21
77240;BME280;66258;53.170;-2.240;2023-05-28T12:02:27;101342.47;;;32.38;37.31
77240;BME280;66258;53.170;-2.240;2023-05-28T12:04:55;101342.63;;;31.82;37.09
77240;BME280;66258;53.170;-2.240;2023-05-28T12:07:27;101346.59;;;31.35;38.57
77240;BME280;66258;53.170;-2.240;2023-05-28T12:10:02;101338.16;;;31.00;38.51
77240;BME280;66258;53.170;-2.240;2023-05-28T12:12:29;101336.53;;;31.14;39.01
77240;BME280;66258;53.170;-2.240;2023-05-28T12:14:56;101335.34;;;31.00;40.06
77240;BME280;66258;53.170;-2.240;2023-05-28T12:17:22;101331.38;;;30.60;44.12
77240;BME280;66258;53.170;-2.240;2023-05-28T12:19:49;101322.59;;;30.26;41.22
77240;BME280;66258;53.170;-2.240;2023-05-28T12:22:16;101326.19;;;30.22;40.33
77240;BME280;66258;53.170;-2.240;2023-05-28T12:24:49;101327.16;;;29.90;42.20
77240;BME280;66258;53.170;-2.240;2023-05-28T12:27:16;101331.31;;;29.88;43.04
77240;BME280;66258;53.170;-2.240;2023-05-28T12:29:43;101328.09;;;30.06;43.63
77240;BME280;66258;53.170;-2.240;2023-05-28T12:32:09;101329.03;;;29.80;43.45
77240;BME280;66258;53.170;-2.240;2023-05-28T12:34:36;101320.84;;;29.63;42.77
77240;BME280;66258;53.170;-2.240;2023-05-28T12:37:03;101323.16;;;29.39;44.31